createdAt,value
2022-08-08T00:07:53.076Z,0.90
2022-08-08T00:18:03.844Z,1.10
2022-08-08T00:28:05.945Z,1.10
2022-08-08T00:38:31.282Z,1.20
2022-08-08T00:48:34.213Z,0.80
2022-08-08T00:58:35.636Z,0.93
2022-08-08T01:08:37.517Z,1.23
2022-08-08T01:18:53.791Z,1.10
2022-08-08T01:28:55.961Z,1.08
2022-08-08T01:39:00.521Z,0.70
2022-08-08T01:49:01.915Z,1.00
2022-08-08T01:59:03.292Z,1.00
2022-08-08T02:09:17.608Z,1.00
2022-08-08T02:19:50.541Z,0.80
2022-08-08T02:29:46.810Z,0.88
2022-08-08T02:39:58.499Z,1.08
2022-08-08T02:50:01.639Z,0.80
2022-08-08T03:00:27.073Z,1.00
2022-08-08T03:10:33.456Z,1.00
2022-08-08T03:20:38.337Z,0.95
2022-08-08T03:30:43.161Z,1.33
2022-08-08T03:40:51.933Z,1.00
2022-08-08T03:50:53.460Z,0.90
2022-08-08T04:01:02.131Z,1.05
2022-08-08T04:11:17.782Z,0.88
2022-08-08T04:21:23.008Z,1.10
2022-08-08T04:31:57.325Z,1.10
2022-08-08T04:41:46.175Z,0.80
2022-08-08T04:51:54.980Z,1.08
2022-08-08T05:01:59.475Z,0.90
2022-08-08T05:12:03.376Z,1.05
2022-08-08T05:22:04.731Z,0.80
2022-08-08T05:32:08.288Z,0.90
2022-08-08T05:42:10.077Z,1.10
2022-08-08T05:52:11.458Z,1.00
2022-08-08T06:02:32.997Z,0.82
2022-08-08T06:12:34.812Z,1.10
2022-08-08T06:22:38.458Z,1.23
2022-08-08T06:32:47.816Z,1.00
2022-08-08T06:42:52.162Z,0.90
2022-08-08T06:52:54.586Z,1.10
2022-08-08T07:02:57.699Z,1.13
2022-08-08T07:12:59.110Z,1.25
2022-08-08T07:23:00.442Z,0.90
2022-08-08T07:33:03.072Z,1.20
2022-08-08T07:43:08.910Z,1.00
2022-08-08T07:53:11.317Z,1.20
2022-08-08T08:03:41.145Z,1.02
2022-08-08T08:14:07.563Z,1.17
2022-08-08T08:24:06.158Z,1.10
2022-08-08T08:34:12.787Z,1.10
2022-08-08T08:44:15.531Z,1.13
2022-08-08T08:54:17.351Z,1.20
2022-08-08T09:04:30.105Z,1.73
2022-08-08T09:14:33.901Z,1.65
2022-08-08T09:24:38.375Z,1.40
2022-08-08T09:34:42.137Z,1.30
2022-08-08T09:44:46.911Z,1.92
2022-08-08T09:54:48.258Z,1.92
2022-08-08T10:04:49.772Z,1.73
2022-08-08T10:14:54.059Z,2.08
2022-08-08T10:24:55.457Z,1.60
2022-08-08T10:35:00.367Z,1.90
2022-08-08T10:45:02.913Z,1.50
2022-08-08T10:55:11.899Z,1.25
2022-08-08T11:05:14.989Z,1.60
2022-08-08T11:15:19.075Z,1.42
2022-08-08T11:25:20.445Z,0.95
2022-08-08T11:35:42.604Z,1.42
2022-08-08T11:46:09.112Z,1.33
2022-08-08T11:56:06.164Z,1.33
2022-08-08T12:06:09.494Z,1.40
2022-08-08T12:16:11.503Z,1.30
2022-08-08T12:26:17.384Z,1.35
2022-08-08T12:36:29.915Z,1.13
2022-08-08T12:46:36.035Z,1.55
2022-08-08T12:56:37.450Z,1.00
2022-08-08T13:06:39.241Z,1.73
2022-08-08T13:16:43.105Z,1.20
2022-08-08T13:26:54.787Z,1.90
2022-08-08T13:36:58.399Z,1.00
2022-08-08T13:47:00.520Z,1.10
2022-08-08T13:57:03.269Z,1.20
2022-08-08T14:07:04.671Z,1.30
2022-08-08T14:17:05.983Z,1.10
2022-08-08T14:27:07.929Z,1.00
2022-08-08T14:37:09.391Z,0.90
2022-08-08T14:47:21.352Z,1.10
2022-08-08T14:58:00.676Z,1.30
2022-08-08T15:07:44.724Z,1.00
2022-08-08T15:18:01.228Z,1.02
2022-08-08T15:28:32.807Z,1.17
2022-08-08T15:38:24.636Z,1.20
2022-08-08T15:48:26.901Z,1.13
2022-08-08T15:58:31.720Z,1.45
2022-08-08T16:08:33.141Z,1.00
2022-08-08T16:18:35.092Z,1.20
2022-08-08T16:28:37.120Z,1.17
2022-08-08T16:38:47.184Z,1.20
2022-08-08T16:48:49.158Z,1.20
2022-08-08T16:58:51.112Z,0.98
2022-08-08T17:08:52.508Z,1.02
2022-08-08T17:18:53.943Z,0.85
2022-08-08T17:28:55.284Z,1.13
2022-08-08T17:38:57.969Z,0.80
2022-08-08T17:49:06.933Z,1.10
2022-08-08T17:59:11.110Z,1.10
2022-08-08T18:09:12.778Z,0.90
2022-08-08T18:19:17.872Z,0.77
2022-08-08T18:29:25.825Z,1.20
2022-08-08T18:39:31.070Z,1.00
2022-08-08T18:49:57.271Z,1.00
2022-08-08T18:59:56.608Z,1.20
2022-08-08T19:20:17.777Z,1.00
2022-08-08T19:30:24.488Z,1.07
2022-08-08T19:40:31.097Z,1.00
2022-08-08T19:50:34.232Z,0.90
2022-08-08T20:00:37.117Z,1.00
2022-08-08T20:10:38.680Z,1.13
2022-08-08T20:20:41.103Z,1.20
2022-08-08T20:30:56.328Z,0.85
2022-08-08T20:41:15.364Z,1.40
2022-08-08T20:51:20.815Z,1.55
2022-08-08T21:01:22.427Z,1.80
2022-08-08T21:11:51.881Z,6.78
2022-08-08T21:21:48.730Z,5.85
2022-08-08T21:31:58.604Z,5.05
2022-08-08T21:42:00.781Z,1.40
2022-08-08T21:54:35.075Z,1.00
2022-08-08T22:02:24.180Z,1.10
2022-08-08T22:12:25.731Z,1.33
2022-08-08T22:22:29.096Z,1.00
2022-08-08T22:32:31.648Z,1.23
2022-08-08T22:42:34.559Z,1.30
2022-08-08T22:52:36.234Z,1.27
2022-08-08T23:02:38.679Z,1.15
2022-08-08T23:12:41.421Z,1.30
2022-08-08T23:22:43.001Z,1.25
2022-08-08T23:32:45.110Z,1.23
2022-08-08T23:42:46.506Z,1.30
2022-08-08T23:52:47.996Z,1.30
